createdAt,value
2018-03-15T00:00:29.982Z,16.60
2018-03-15T00:01:01.986Z,16.60
2018-03-15T00:01:34.000Z,16.50
2018-03-15T00:02:06.038Z,16.50
2018-03-15T00:02:37.847Z,16.50
2018-03-15T00:03:09.794Z,16.60
2018-03-15T00:03:42.269Z,16.50
2018-03-15T00:04:14.222Z,16.60
2018-03-15T00:04:46.234Z,16.50
2018-03-15T00:05:18.247Z,16.50
2018-03-15T00:05:50.152Z,16.60
2018-03-15T00:06:22.053Z,16.60
2018-03-15T00:06:53.944Z,16.50
2018-03-15T00:07:25.834Z,16.50
2018-03-15T00:07:57.801Z,16.50
2018-03-15T00:08:29.813Z,16.50
2018-03-15T00:09:01.789Z,16.50
2018-03-15T00:09:33.703Z,16.50
2018-03-15T00:10:06.338Z,16.50
2018-03-15T00:10:38.330Z,16.50
2018-03-15T00:11:11.088Z,16.50
2018-03-15T00:11:43.732Z,16.50
2018-03-15T00:12:15.625Z,16.50
2018-03-15T00:12:47.531Z,16.50
2018-03-15T00:13:19.453Z,16.50
2018-03-15T00:13:51.312Z,16.60
2018-03-15T00:14:23.049Z,16.50
2018-03-15T00:14:55.167Z,16.50
2018-03-15T00:15:27.089Z,16.50
2018-03-15T00:15:59.769Z,16.50
2018-03-15T00:16:32.464Z,16.50
2018-03-15T00:17:04.434Z,16.50
2018-03-15T00:17:36.472Z,16.50
2018-03-15T00:18:08.380Z,16.50
2018-03-15T00:18:41.079Z,16.40
2018-03-15T00:19:13.025Z,16.50
2018-03-15T00:19:44.917Z,16.40
2018-03-15T00:20:16.635Z,16.40
2018-03-15T00:20:48.544Z,16.40
2018-03-15T00:21:20.460Z,16.40
2018-03-15T00:21:52.368Z,16.40
2018-03-15T00:22:24.250Z,16.40
2018-03-15T00:22:56.150Z,16.40
2018-03-15T00:23:28.036Z,16.40
2018-03-15T00:23:59.938Z,16.40
2018-03-15T00:24:31.928Z,16.40
2018-03-15T00:25:03.846Z,16.40
2018-03-15T00:25:35.795Z,16.40
2018-03-15T00:26:07.732Z,16.40
2018-03-15T00:26:39.630Z,16.40
2018-03-15T00:27:11.740Z,16.40
2018-03-15T00:27:43.650Z,16.40
2018-03-15T00:28:15.663Z,16.40
2018-03-15T00:28:47.632Z,16.50
2018-03-15T00:29:19.551Z,16.40
2018-03-15T00:29:51.261Z,16.40
2018-03-15T00:30:23.008Z,16.40
2018-03-15T00:30:54.733Z,16.40
2018-03-15T00:31:26.465Z,16.40
2018-03-15T00:31:58.959Z,16.40
2018-03-15T00:32:30.687Z,16.40
2018-03-15T00:33:02.406Z,16.40
2018-03-15T00:33:34.904Z,16.40
2018-03-15T00:34:06.617Z,16.40
2018-03-15T00:34:39.181Z,16.40
2018-03-15T00:35:11.667Z,16.40
2018-03-15T00:35:43.403Z,16.40
2018-03-15T00:36:15.136Z,16.40
2018-03-15T00:36:47.637Z,16.40
2018-03-15T00:37:19.377Z,16.40
2018-03-15T00:37:51.105Z,16.40
2018-03-15T00:38:22.828Z,16.40
2018-03-15T00:38:55.332Z,16.40
2018-03-15T00:39:27.074Z,16.40
2018-03-15T00:39:58.814Z,16.40
2018-03-15T00:40:30.544Z,16.40
2018-03-15T00:41:02.278Z,16.40
2018-03-15T00:41:34.773Z,16.40
2018-03-15T00:42:06.484Z,16.40
2018-03-15T00:42:38.216Z,16.40
2018-03-15T00:43:10.710Z,16.40
2018-03-15T00:43:42.429Z,16.40
2018-03-15T00:44:14.171Z,16.40
2018-03-15T00:44:46.649Z,16.40
2018-03-15T00:45:18.369Z,16.40
2018-03-15T00:45:50.880Z,16.40
2018-03-15T00:46:22.595Z,16.40
2018-03-15T00:46:54.316Z,16.40
2018-03-15T00:47:26.807Z,16.50
2018-03-15T00:47:58.561Z,16.50
2018-03-15T00:48:31.028Z,16.40
2018-03-15T00:49:02.757Z,16.40
2018-03-15T00:49:34.474Z,16.40
2018-03-15T00:50:06.960Z,16.40
2018-03-15T00:50:38.683Z,16.40
2018-03-15T00:51:11.186Z,16.30
2018-03-15T00:51:42.952Z,16.30
2018-03-15T00:52:14.695Z,16.30
2018-03-15T00:52:46.427Z,16.30
2018-03-15T00:53:18.153Z,16.30
2018-03-15T00:53:49.880Z,16.30
2018-03-15T00:54:22.403Z,16.30
2018-03-15T00:54:54.238Z,16.30
2018-03-15T00:55:25.958Z,16.30
2018-03-15T00:55:57.700Z,16.30
2018-03-15T00:56:29.450Z,16.30
2018-03-15T00:57:01.168Z,16.30
2018-03-15T00:57:32.893Z,16.20
2018-03-15T00:58:05.399Z,16.20
2018-03-15T00:58:37.129Z,16.20
2018-03-15T00:59:08.867Z,16.20
2018-03-15T00:59:40.580Z,16.20
2018-03-15T01:00:13.097Z,16.20
2018-03-15T01:00:44.823Z,16.20
2018-03-15T01:01:16.531Z,16.20
2018-03-15T01:01:49.034Z,16.30
2018-03-15T01:02:20.756Z,16.30
2018-03-15T01:02:52.470Z,16.30
2018-03-15T01:03:24.216Z,16.30
2018-03-15T01:03:56.010Z,16.30
2018-03-15T01:04:27.738Z,16.30
2018-03-15T01:05:00.236Z,16.30
2018-03-15T01:05:32.011Z,16.30
2018-03-15T01:06:03.798Z,16.30
2018-03-15T01:06:36.280Z,16.20
2018-03-15T01:07:08.041Z,16.20
2018-03-15T01:07:39.772Z,16.20
2018-03-15T01:08:11.522Z,16.50
2018-03-15T01:08:43.274Z,16.20
2018-03-15T01:09:15.014Z,16.30
2018-03-15T01:09:46.764Z,16.50
2018-03-15T01:10:18.483Z,16.30
2018-03-15T01:10:50.208Z,16.30
2018-03-15T01:11:21.939Z,16.30
2018-03-15T01:11:54.437Z,16.30
2018-03-15T01:12:26.179Z,16.30
2018-03-15T01:12:57.906Z,16.30
2018-03-15T01:13:29.642Z,16.30
2018-03-15T01:14:01.365Z,16.30
2018-03-15T01:14:33.094Z,16.30
2018-03-15T01:15:04.839Z,16.30
2018-03-15T01:15:36.559Z,16.30
2018-03-15T01:16:09.044Z,16.30
2018-03-15T01:16:40.788Z,16.30
2018-03-15T01:17:12.542Z,16.30
2018-03-15T01:17:44.290Z,16.30
2018-03-15T01:18:16.017Z,16.30
2018-03-15T01:18:47.738Z,16.30
2018-03-15T01:19:20.224Z,16.30
2018-03-15T01:19:51.956Z,16.30
2018-03-15T01:20:24.474Z,16.30
2018-03-15T01:20:56.214Z,16.30
2018-03-15T01:21:27.923Z,16.30
2018-03-15T01:21:59.660Z,16.30
2018-03-15T01:22:31.415Z,16.30
2018-03-15T01:23:03.172Z,16.30
2018-03-15T01:23:34.896Z,16.30
2018-03-15T01:24:06.673Z,16.30
2018-03-15T01:24:38.384Z,16.30
2018-03-15T01:25:10.113Z,16.30
2018-03-15T01:25:42.605Z,16.30
2018-03-15T01:26:14.345Z,16.30
2018-03-15T01:26:46.069Z,16.30
2018-03-15T01:27:17.808Z,16.30
2018-03-15T01:27:50.307Z,16.30
2018-03-15T01:28:22.024Z,16.30
2018-03-15T01:28:53.760Z,16.30
2018-03-15T01:29:26.246Z,16.20
2018-03-15T01:29:57.984Z,16.30
2018-03-15T01:30:29.711Z,16.30
2018-03-15T01:31:01.443Z,16.20
2018-03-15T01:31:33.936Z,16.20
2018-03-15T01:32:05.661Z,16.20
2018-03-15T01:32:37.385Z,16.20
2018-03-15T01:33:09.929Z,16.20
2018-03-15T01:33:41.663Z,16.20
2018-03-15T01:34:13.390Z,16.20
2018-03-15T01:34:45.100Z,16.20
2018-03-15T01:35:16.823Z,16.20
2018-03-15T01:35:49.304Z,16.20
2018-03-15T01:36:21.033Z,16.20
2018-03-15T01:36:53.518Z,16.20
2018-03-15T01:37:25.250Z,16.10
2018-03-15T01:37:57.735Z,16.20
2018-03-15T01:38:29.484Z,16.20
2018-03-15T01:39:01.212Z,16.20
2018-03-15T01:39:32.953Z,16.20
2018-03-15T01:40:05.428Z,16.20
2018-03-15T01:40:37.165Z,16.20
2018-03-15T01:41:08.955Z,16.20
2018-03-15T01:41:40.696Z,16.20
2018-03-15T01:42:12.412Z,16.20
2018-03-15T01:42:44.136Z,16.20
2018-03-15T01:43:15.864Z,16.20
2018-03-15T01:43:48.352Z,16.20
2018-03-15T01:44:20.086Z,16.20
2018-03-15T01:44:51.850Z,16.20
2018-03-15T01:45:23.575Z,16.20
2018-03-15T01:45:55.301Z,16.20
2018-03-15T01:46:27.791Z,16.20
2018-03-15T01:46:59.520Z,16.20
2018-03-15T01:47:32.006Z,16.20
2018-03-15T01:48:03.728Z,16.20
2018-03-15T01:48:35.459Z,16.20
2018-03-15T01:49:07.963Z,16.20
2018-03-15T01:49:39.684Z,16.20
2018-03-15T01:50:11.437Z,16.20
2018-03-15T01:50:43.159Z,16.20
2018-03-15T01:51:14.955Z,16.20
2018-03-15T01:51:46.656Z,16.20
2018-03-15T01:52:18.396Z,16.20
2018-03-15T01:52:50.894Z,16.20
2018-03-15T01:53:22.611Z,16.10
2018-03-15T01:53:54.350Z,16.10
2018-03-15T01:54:26.091Z,16.10
2018-03-15T01:54:58.579Z,16.10
2018-03-15T01:55:30.297Z,16.10
2018-03-15T01:56:02.034Z,16.10
2018-03-15T01:56:34.519Z,16.10
2018-03-15T01:57:06.249Z,16.10
2018-03-15T01:57:38.024Z,16.10
2018-03-15T01:58:09.752Z,16.10
2018-03-15T01:58:41.480Z,16.10
2018-03-15T01:59:13.254Z,16.10
2018-03-15T01:59:44.965Z,16.10
2018-03-15T02:00:16.695Z,16.10
2018-03-15T02:00:48.418Z,16.10
2018-03-15T02:01:20.143Z,16.10
2018-03-15T02:01:51.866Z,16.10
2018-03-15T02:02:23.600Z,16.10
2018-03-15T02:02:55.333Z,16.10
2018-03-15T02:03:27.870Z,16.10
2018-03-15T02:03:59.603Z,16.10
2018-03-15T02:04:31.345Z,16.10
2018-03-15T02:05:03.081Z,16.10
2018-03-15T02:05:34.811Z,16.10
2018-03-15T02:06:06.550Z,16.10
2018-03-15T02:06:38.263Z,16.10
2018-03-15T02:07:10.025Z,16.10
2018-03-15T02:07:41.751Z,16.10
2018-03-15T02:08:13.493Z,16.10
2018-03-15T02:08:45.980Z,16.10
2018-03-15T02:09:17.708Z,16.10
2018-03-15T02:09:49.455Z,16.10
2018-03-15T02:10:21.177Z,16.10
2018-03-15T02:10:53.668Z,16.10
2018-03-15T02:11:25.426Z,16.10
2018-03-15T02:11:57.145Z,16.10
2018-03-15T02:12:28.935Z,16.10
2018-03-15T02:13:00.659Z,16.10
2018-03-15T02:13:32.401Z,16.10
2018-03-15T02:14:04.113Z,16.10
2018-03-15T02:14:35.847Z,16.10
2018-03-15T02:15:08.348Z,16.10
2018-03-15T02:15:40.066Z,16.10
2018-03-15T02:16:12.558Z,16.10
2018-03-15T02:16:44.321Z,16.10
2018-03-15T02:17:16.762Z,16.10
2018-03-15T02:17:48.472Z,16.10
2018-03-15T02:18:21.082Z,16.10
2018-03-15T02:18:52.783Z,16.10
2018-03-15T02:19:24.529Z,16.10
2018-03-15T02:19:57.024Z,16.10
2018-03-15T02:20:28.744Z,16.10
2018-03-15T02:21:00.479Z,16.10
2018-03-15T02:21:32.202Z,16.10
2018-03-15T02:22:03.932Z,16.10
2018-03-15T02:22:35.651Z,16.10
2018-03-15T02:23:07.384Z,16.10
2018-03-15T02:23:39.125Z,16.10
2018-03-15T02:24:10.868Z,16.10
2018-03-15T02:24:42.587Z,16.10
2018-03-15T02:25:14.333Z,16.10
2018-03-15T02:25:46.063Z,16.10
2018-03-15T02:26:18.560Z,16.10
2018-03-15T02:26:50.285Z,16.10
2018-03-15T02:27:22.020Z,16.10
2018-03-15T02:27:54.533Z,16.10
2018-03-15T02:28:26.249Z,16.10
2018-03-15T02:28:57.982Z,16.10
2018-03-15T02:29:29.727Z,16.10
2018-03-15T02:30:02.240Z,16.10
2018-03-15T02:30:33.965Z,16.20
2018-03-15T02:31:05.700Z,16.20
2018-03-15T02:31:37.407Z,16.10
2018-03-15T02:32:09.166Z,16.10
2018-03-15T02:32:40.888Z,16.10
2018-03-15T02:33:13.396Z,16.20
2018-03-15T02:33:45.118Z,16.00
2018-03-15T02:34:16.855Z,16.20
2018-03-15T02:34:49.334Z,16.20
2018-03-15T02:35:21.081Z,16.10
2018-03-15T02:35:52.826Z,16.20
2018-03-15T02:36:24.578Z,16.20
2018-03-15T02:36:56.294Z,16.10
2018-03-15T02:37:28.010Z,16.10
2018-03-15T02:37:59.748Z,16.20
2018-03-15T02:38:31.472Z,16.10
2018-03-15T02:39:03.205Z,16.10
2018-03-15T02:39:34.929Z,16.10
2018-03-15T02:40:06.668Z,16.10
2018-03-15T02:40:38.387Z,16.10
2018-03-15T02:41:10.886Z,16.10
2018-03-15T02:41:42.605Z,16.10
2018-03-15T02:42:14.337Z,16.10
2018-03-15T02:42:46.839Z,16.10
2018-03-15T02:43:18.567Z,16.10
2018-03-15T02:43:50.296Z,16.10
2018-03-15T02:44:22.795Z,16.10
2018-03-15T02:44:54.517Z,16.10
2018-03-15T02:45:26.318Z,16.10
2018-03-15T02:45:58.730Z,16.10
2018-03-15T02:46:30.472Z,16.10
2018-03-15T02:47:02.183Z,16.10
2018-03-15T02:47:34.663Z,16.10
2018-03-15T02:48:06.392Z,16.10
2018-03-15T02:48:38.893Z,16.10
2018-03-15T02:49:10.625Z,16.10
2018-03-15T02:49:42.345Z,16.10
2018-03-15T02:50:14.850Z,16.10
2018-03-15T02:50:46.642Z,16.10
2018-03-15T02:51:18.373Z,16.10
2018-03-15T02:51:50.100Z,16.10
2018-03-15T02:52:21.857Z,16.10
2018-03-15T02:52:53.589Z,16.10
2018-03-15T02:53:25.327Z,16.10
2018-03-15T02:53:57.085Z,16.10
2018-03-15T02:54:28.809Z,16.10
2018-03-15T02:55:00.564Z,16.10
2018-03-15T02:55:32.317Z,16.10
2018-03-15T02:56:04.077Z,16.10
2018-03-15T02:56:35.840Z,16.10
2018-03-15T02:57:08.325Z,16.10
2018-03-15T02:57:40.041Z,16.10
2018-03-15T02:58:12.565Z,16.10
2018-03-15T02:58:44.289Z,16.10
2018-03-15T02:59:16.006Z,16.10
2018-03-15T02:59:48.512Z,16.10
2018-03-15T03:00:20.261Z,16.10
2018-03-15T03:00:52.033Z,16.10
2018-03-15T03:01:23.799Z,16.10
2018-03-15T03:01:56.276Z,16.10
2018-03-15T03:02:27.997Z,16.10
2018-03-15T03:03:00.512Z,16.00
2018-03-15T03:03:32.248Z,16.00
2018-03-15T03:04:03.993Z,16.00
2018-03-15T03:04:35.789Z,16.00
2018-03-15T03:05:08.308Z,16.00
2018-03-15T03:05:40.132Z,16.00
2018-03-15T03:06:11.920Z,16.00
2018-03-15T03:06:43.680Z,16.00
2018-03-15T03:07:16.185Z,16.00
2018-03-15T03:07:47.889Z,16.00
2018-03-15T03:08:20.386Z,16.10
2018-03-15T03:08:52.125Z,16.00
2018-03-15T03:09:24.585Z,16.10
2018-03-15T03:09:56.310Z,16.00
2018-03-15T03:10:28.817Z,16.00
2018-03-15T03:11:00.563Z,16.00
2018-03-15T03:11:32.354Z,16.00
2018-03-15T03:12:04.099Z,16.00
2018-03-15T03:12:35.895Z,16.00
2018-03-15T03:13:07.614Z,16.00
2018-03-15T03:13:39.329Z,16.00
2018-03-15T03:14:11.079Z,16.00
2018-03-15T03:14:43.621Z,16.00
2018-03-15T03:15:15.391Z,16.00
2018-03-15T03:15:47.878Z,16.00
2018-03-15T03:16:19.618Z,16.00
2018-03-15T03:16:51.338Z,16.00
2018-03-15T03:17:23.830Z,16.00
2018-03-15T03:17:55.564Z,15.90
2018-03-15T03:18:28.052Z,15.90
2018-03-15T03:18:59.795Z,15.90
2018-03-15T03:19:31.549Z,15.90
2018-03-15T03:20:03.280Z,15.90
2018-03-15T03:20:34.997Z,15.90
2018-03-15T03:21:06.726Z,15.90
2018-03-15T03:21:39.242Z,15.90
2018-03-15T03:22:10.957Z,15.90
2018-03-15T03:22:42.676Z,15.90
2018-03-15T03:23:15.165Z,15.90
2018-03-15T03:23:46.890Z,15.90
2018-03-15T03:24:19.388Z,15.90
2018-03-15T03:24:51.123Z,15.90
2018-03-15T03:25:22.901Z,15.90
2018-03-15T03:25:54.651Z,15.90
2018-03-15T03:26:26.403Z,15.90
2018-03-15T03:26:58.138Z,15.90
2018-03-15T03:27:29.868Z,15.90
2018-03-15T03:28:01.597Z,15.90
2018-03-15T03:28:33.351Z,16.00
2018-03-15T03:29:05.250Z,15.90
2018-03-15T03:29:36.959Z,16.00
2018-03-15T03:30:08.699Z,16.00
2018-03-15T03:30:40.428Z,16.00
2018-03-15T03:31:12.172Z,16.00
2018-03-15T03:31:43.922Z,16.00
2018-03-15T03:32:15.636Z,16.00
2018-03-15T03:32:47.375Z,16.00
2018-03-15T03:33:19.885Z,15.90
2018-03-15T03:33:51.638Z,15.90
2018-03-15T03:34:23.360Z,15.90
2018-03-15T03:34:55.141Z,15.90
2018-03-15T03:35:26.933Z,15.90
2018-03-15T03:35:59.398Z,15.90
2018-03-15T03:36:31.150Z,15.90
2018-03-15T03:37:02.923Z,15.90
2018-03-15T03:37:34.633Z,15.90
2018-03-15T03:38:06.380Z,15.90
2018-03-15T03:38:38.219Z,15.90
2018-03-15T03:39:09.978Z,15.90
2018-03-15T03:39:41.710Z,15.90
2018-03-15T03:40:13.435Z,15.90
2018-03-15T03:40:45.948Z,15.90
2018-03-15T03:41:17.693Z,15.90
2018-03-15T03:41:49.426Z,15.90
2018-03-15T03:42:21.183Z,15.90
2018-03-15T03:42:52.967Z,16.00
2018-03-15T03:43:25.457Z,16.00
2018-03-15T03:43:57.235Z,15.90
2018-03-15T03:44:28.975Z,15.90
2018-03-15T03:45:00.701Z,16.00
2018-03-15T03:45:32.504Z,16.00
2018-03-15T03:46:04.995Z,16.00
2018-03-15T03:46:36.724Z,15.90
2018-03-15T03:47:08.449Z,15.90
2018-03-15T03:47:40.944Z,16.00
2018-03-15T03:48:12.874Z,16.00
2018-03-15T03:48:44.599Z,16.00
2018-03-15T03:49:17.103Z,16.00
2018-03-15T03:49:48.838Z,16.00
2018-03-15T03:50:20.567Z,16.00
2018-03-15T03:50:52.310Z,16.00
2018-03-15T03:51:24.799Z,16.00
2018-03-15T03:51:56.543Z,16.00
2018-03-15T03:52:28.289Z,16.00
2018-03-15T03:53:00.035Z,16.00
2018-03-15T03:53:31.773Z,16.00
2018-03-15T03:54:03.687Z,16.00
2018-03-15T03:54:35.409Z,16.00
2018-03-15T03:55:07.138Z,16.00
2018-03-15T03:55:38.885Z,16.00
2018-03-15T03:56:10.664Z,16.00
2018-03-15T03:56:42.363Z,16.00
2018-03-15T03:57:14.098Z,16.00
2018-03-15T03:57:45.829Z,16.00
2018-03-15T03:58:17.577Z,16.00
2018-03-15T03:58:49.420Z,16.00
2018-03-15T03:59:21.130Z,16.00
2018-03-15T03:59:53.625Z,16.00
2018-03-15T04:00:25.369Z,16.00
2018-03-15T04:00:57.121Z,16.00
2018-03-15T04:01:28.810Z,16.00
2018-03-15T04:02:00.591Z,16.00
2018-03-15T04:02:32.277Z,16.00
2018-03-15T04:03:04.019Z,16.00
2018-03-15T04:03:35.745Z,16.00
2018-03-15T04:04:07.487Z,16.00
2018-03-15T04:04:39.238Z,16.00
2018-03-15T04:05:10.957Z,16.00
2018-03-15T04:05:42.697Z,16.00
2018-03-15T04:06:14.424Z,16.00
2018-03-15T04:06:46.968Z,16.00
2018-03-15T04:07:18.688Z,15.90
2018-03-15T04:07:50.418Z,15.90
2018-03-15T04:08:22.152Z,15.90
2018-03-15T04:08:53.873Z,15.90
2018-03-15T04:09:25.597Z,15.90
2018-03-15T04:09:58.088Z,15.90
2018-03-15T04:10:29.816Z,15.90
2018-03-15T04:11:02.334Z,15.90
2018-03-15T04:11:34.067Z,15.90
2018-03-15T04:12:05.792Z,15.90
2018-03-15T04:12:37.527Z,15.90
2018-03-15T04:13:09.257Z,15.90
2018-03-15T04:13:41.034Z,15.90
2018-03-15T04:14:12.809Z,15.90
2018-03-15T04:14:44.587Z,15.90
2018-03-15T04:15:17.095Z,15.90
2018-03-15T04:15:48.867Z,15.90
2018-03-15T04:16:20.584Z,15.90
2018-03-15T04:16:52.323Z,15.90
2018-03-15T04:17:24.039Z,15.90
2018-03-15T04:17:55.817Z,15.90
2018-03-15T04:18:27.627Z,15.90
2018-03-15T04:18:59.344Z,15.90
2018-03-15T04:19:31.061Z,15.90
2018-03-15T04:20:02.792Z,15.90
2018-03-15T04:20:34.518Z,15.90
2018-03-15T04:21:06.255Z,15.90
2018-03-15T04:21:37.996Z,15.90
2018-03-15T04:22:10.467Z,15.90
2018-03-15T04:22:42.205Z,15.90
2018-03-15T04:23:13.966Z,15.90
2018-03-15T04:23:45.689Z,15.90
2018-03-15T04:24:17.461Z,15.90
2018-03-15T04:24:49.187Z,15.90
2018-03-15T04:25:20.939Z,15.90
2018-03-15T04:25:52.724Z,15.90
2018-03-15T04:26:24.456Z,16.00
2018-03-15T04:26:56.173Z,15.90
2018-03-15T04:27:27.947Z,15.90
2018-03-15T04:27:59.699Z,16.00
2018-03-15T04:28:31.625Z,16.00
2018-03-15T04:29:03.361Z,16.00
2018-03-15T04:29:35.089Z,15.90
2018-03-15T04:30:06.819Z,15.90
2018-03-15T04:30:38.544Z,15.90
2018-03-15T04:31:10.269Z,15.90
2018-03-15T04:31:42.012Z,15.90
2018-03-15T04:32:13.724Z,15.90
2018-03-15T04:32:45.503Z,15.90
2018-03-15T04:33:17.352Z,15.90
2018-03-15T04:33:49.077Z,15.90
2018-03-15T04:34:20.822Z,15.90
2018-03-15T04:34:52.532Z,15.90
2018-03-15T04:35:24.277Z,15.90
2018-03-15T04:35:56.012Z,15.90
2018-03-15T04:36:27.739Z,15.90
2018-03-15T04:37:00.265Z,15.90
2018-03-15T04:37:32.003Z,15.90
2018-03-15T04:38:03.745Z,15.90
2018-03-15T04:38:35.638Z,15.90
2018-03-15T04:39:07.392Z,15.90
2018-03-15T04:39:39.883Z,15.90
2018-03-15T04:40:11.603Z,15.90
2018-03-15T04:40:43.326Z,15.90
2018-03-15T04:41:15.851Z,15.90
2018-03-15T04:41:47.630Z,15.90
2018-03-15T04:42:19.346Z,15.90
2018-03-15T04:42:51.094Z,15.90
2018-03-15T04:43:22.931Z,15.90
2018-03-15T04:43:54.683Z,15.90
2018-03-15T04:44:26.420Z,15.80
2018-03-15T04:44:58.156Z,15.80
2018-03-15T04:45:29.865Z,15.70
2018-03-15T04:46:01.598Z,15.70
2018-03-15T04:46:33.353Z,15.70
2018-03-15T04:47:05.208Z,15.70
2018-03-15T04:47:36.959Z,15.70
2018-03-15T04:48:08.715Z,15.80
2018-03-15T04:48:41.196Z,15.80
2018-03-15T04:49:12.947Z,15.80
2018-03-15T04:49:44.674Z,15.80
2018-03-15T04:50:16.396Z,15.80
2018-03-15T04:50:48.116Z,15.80
2018-03-15T04:51:19.872Z,15.80
2018-03-15T04:51:51.593Z,15.80
2018-03-15T04:52:23.327Z,15.90
2018-03-15T04:52:55.083Z,15.90
2018-03-15T04:53:26.872Z,15.90
2018-03-15T04:53:58.602Z,15.90
2018-03-15T04:54:30.314Z,15.90
2018-03-15T04:55:02.045Z,15.90
2018-03-15T04:55:33.766Z,15.90
2018-03-15T04:56:05.513Z,15.90
2018-03-15T04:56:37.303Z,15.80
2018-03-15T04:57:09.007Z,15.80
2018-03-15T04:57:40.770Z,15.80
2018-03-15T04:58:12.560Z,15.80
2018-03-15T04:58:44.286Z,15.80
2018-03-15T04:59:16.005Z,15.80
2018-03-15T04:59:47.747Z,15.80
2018-03-15T05:00:19.471Z,15.80
2018-03-15T05:00:51.190Z,15.80
2018-03-15T05:01:23.702Z,15.80
2018-03-15T05:01:55.557Z,15.80
2018-03-15T05:02:27.345Z,15.80
2018-03-15T05:02:59.050Z,15.90
2018-03-15T05:03:30.805Z,15.90
2018-03-15T05:04:02.535Z,15.90
2018-03-15T05:04:34.248Z,16.00
2018-03-15T05:05:06.023Z,16.10
2018-03-15T05:05:37.758Z,16.10
2018-03-15T05:06:09.477Z,16.10
2018-03-15T05:06:41.241Z,16.10
2018-03-15T05:07:12.966Z,16.20
2018-03-15T05:07:44.723Z,16.20
2018-03-15T05:08:16.483Z,16.20
2018-03-15T05:08:48.204Z,16.20
2018-03-15T05:09:19.933Z,16.20
2018-03-15T05:09:52.482Z,16.30
2018-03-15T05:10:24.998Z,16.30
2018-03-15T05:10:56.760Z,16.30
2018-03-15T05:11:28.519Z,16.30
2018-03-15T05:12:00.278Z,16.30
2018-03-15T05:12:32.804Z,16.30
2018-03-15T05:13:04.533Z,16.30
2018-03-15T05:13:36.253Z,16.30
2018-03-15T05:14:07.980Z,16.30
2018-03-15T05:14:40.488Z,16.30
2018-03-15T05:15:12.253Z,16.30
2018-03-15T05:15:44.016Z,16.20
2018-03-15T05:16:15.745Z,16.30
2018-03-15T05:16:48.277Z,16.30
2018-03-15T05:17:19.996Z,16.30
2018-03-15T05:17:51.723Z,16.30
2018-03-15T05:18:24.208Z,16.30
2018-03-15T05:18:55.971Z,16.30
2018-03-15T05:19:27.737Z,16.30
2018-03-15T05:19:59.460Z,16.30
2018-03-15T05:20:31.179Z,16.30
2018-03-15T05:21:02.904Z,16.30
2018-03-15T05:21:35.376Z,16.30
2018-03-15T05:22:07.113Z,16.40
2018-03-15T05:22:39.622Z,16.30
2018-03-15T05:23:11.382Z,16.30
2018-03-15T05:23:43.104Z,16.30
2018-03-15T05:24:14.823Z,16.40
2018-03-15T05:24:46.557Z,16.40
2018-03-15T05:25:18.311Z,16.30
2018-03-15T05:25:50.052Z,16.40
2018-03-15T05:26:21.775Z,16.40
2018-03-15T05:26:54.272Z,16.40
2018-03-15T05:27:26.009Z,16.30
2018-03-15T05:27:57.751Z,16.40
2018-03-15T05:28:29.545Z,16.40
2018-03-15T05:29:01.406Z,16.40
2018-03-15T05:29:33.124Z,16.40
2018-03-15T05:30:04.857Z,16.40
2018-03-15T05:30:36.598Z,16.40
2018-03-15T05:31:08.327Z,16.40
2018-03-15T05:31:40.094Z,16.40
2018-03-15T05:32:11.791Z,16.40
2018-03-15T05:32:44.317Z,16.40
2018-03-15T05:33:16.103Z,16.40
2018-03-15T05:33:48.595Z,16.40
2018-03-15T05:34:20.321Z,16.40
2018-03-15T05:34:52.053Z,16.40
2018-03-15T05:35:24.540Z,16.40
2018-03-15T05:35:56.311Z,16.30
2018-03-15T05:36:28.074Z,16.40
2018-03-15T05:36:59.828Z,16.40
2018-03-15T05:37:31.563Z,16.40
2018-03-15T05:38:03.318Z,16.30
2018-03-15T05:38:35.049Z,16.40
2018-03-15T05:39:06.768Z,16.40
2018-03-15T05:39:38.492Z,16.40
2018-03-15T05:40:10.217Z,16.40
2018-03-15T05:40:41.948Z,16.40
2018-03-15T05:41:14.454Z,16.50
2018-03-15T05:41:46.178Z,16.40
2018-03-15T05:42:17.912Z,16.50
2018-03-15T05:42:49.654Z,16.50
2018-03-15T05:43:22.147Z,16.50
2018-03-15T05:43:53.871Z,16.50
2018-03-15T05:44:25.593Z,16.50
2018-03-15T05:44:58.122Z,16.60
2018-03-15T05:45:29.834Z,16.60
2018-03-15T05:46:01.600Z,16.50
2018-03-15T05:46:33.312Z,16.50
2018-03-15T05:47:05.041Z,16.50
2018-03-15T05:47:37.550Z,16.60
2018-03-15T05:48:09.269Z,16.60
2018-03-15T05:48:41.005Z,16.60
2018-03-15T05:49:12.917Z,16.60
2018-03-15T05:49:44.645Z,16.60
2018-03-15T05:50:16.366Z,16.60
2018-03-15T05:50:48.112Z,16.60
2018-03-15T05:51:19.862Z,16.60
2018-03-15T05:51:51.584Z,16.60
2018-03-15T05:52:23.405Z,16.60
2018-03-15T05:52:55.115Z,16.60
2018-03-15T05:53:26.856Z,16.20
2018-03-15T05:53:58.645Z,16.60
2018-03-15T05:54:31.136Z,16.60
2018-03-15T05:55:02.916Z,16.60
2018-03-15T05:55:34.670Z,16.60
2018-03-15T05:56:06.400Z,16.60
2018-03-15T05:56:38.146Z,16.60
2018-03-15T05:57:09.925Z,16.60
2018-03-15T05:57:42.407Z,16.60
2018-03-15T05:58:14.152Z,16.60
2018-03-15T05:58:45.870Z,16.50
2018-03-15T05:59:18.430Z,16.60
2018-03-15T05:59:50.163Z,16.60
2018-03-15T06:00:21.880Z,16.10
2018-03-15T06:00:53.648Z,16.60
2018-03-15T06:01:25.383Z,16.50
2018-03-15T06:01:57.104Z,16.50
2018-03-15T06:02:28.844Z,16.50
2018-03-15T06:03:00.565Z,16.50
2018-03-15T06:03:32.289Z,16.50
2018-03-15T06:04:04.771Z,16.50
2018-03-15T06:04:36.524Z,16.50
2018-03-15T06:05:08.245Z,16.50
2018-03-15T06:05:40.757Z,16.50
2018-03-15T06:06:12.499Z,16.50
2018-03-15T06:06:44.230Z,16.50
2018-03-15T06:07:15.953Z,16.60
2018-03-15T06:07:47.676Z,16.60
2018-03-15T06:08:20.177Z,16.60
2018-03-15T06:08:51.904Z,16.60
2018-03-15T06:09:23.645Z,16.60
2018-03-15T06:09:55.372Z,16.60
2018-03-15T06:10:27.870Z,16.60
2018-03-15T06:10:59.664Z,16.60
2018-03-15T06:11:31.413Z,16.50
2018-03-15T06:12:03.173Z,16.50
2018-03-15T06:12:35.682Z,16.50
2018-03-15T06:13:07.501Z,16.50
2018-03-15T06:13:39.977Z,16.50
2018-03-15T06:14:11.741Z,16.50
2018-03-15T06:14:43.477Z,16.50
2018-03-15T06:15:15.217Z,16.50
2018-03-15T06:15:46.991Z,16.50
2018-03-15T06:16:18.747Z,16.50
2018-03-15T06:16:50.518Z,16.50
2018-03-15T06:17:22.242Z,16.50
2018-03-15T06:17:54.769Z,16.50
2018-03-15T06:18:26.532Z,16.50
2018-03-15T06:18:58.312Z,16.50
2018-03-15T06:19:30.848Z,16.50
2018-03-15T06:20:02.570Z,16.50
2018-03-15T06:20:34.297Z,16.50
2018-03-15T06:21:06.047Z,16.50
2018-03-15T06:21:37.898Z,16.50
2018-03-15T06:22:09.649Z,16.50
2018-03-15T06:22:41.456Z,16.50
2018-03-15T06:23:13.394Z,16.50
2018-03-15T06:23:45.123Z,16.50
2018-03-15T06:24:17.627Z,16.50
2018-03-15T06:24:49.389Z,16.50
2018-03-15T06:25:21.139Z,16.50
2018-03-15T06:25:52.884Z,16.50
2018-03-15T06:26:24.630Z,16.50
2018-03-15T06:26:56.400Z,16.50
2018-03-15T06:27:28.133Z,16.50
2018-03-15T06:27:59.865Z,16.50
2018-03-15T06:28:31.608Z,16.50
2018-03-15T06:29:03.369Z,16.50
2018-03-15T06:29:35.118Z,16.50
2018-03-15T06:30:06.914Z,16.50
2018-03-15T06:30:38.619Z,16.50
2018-03-15T06:31:11.116Z,16.50
2018-03-15T06:31:43.669Z,16.50
2018-03-15T06:32:15.415Z,16.50
2018-03-15T06:32:47.460Z,16.50
2018-03-15T06:33:20.343Z,16.50
2018-03-15T06:33:52.174Z,16.50
2018-03-15T06:34:24.657Z,16.50
2018-03-15T06:34:56.405Z,16.40
2018-03-15T06:35:28.120Z,16.50
2018-03-15T06:35:59.858Z,16.50
2018-03-15T06:36:32.339Z,16.40
2018-03-15T06:37:04.065Z,16.40
2018-03-15T06:37:36.573Z,16.50
2018-03-15T06:38:08.294Z,16.50
2018-03-15T06:38:40.037Z,16.50
2018-03-15T06:39:11.774Z,16.50
2018-03-15T06:39:43.512Z,16.50
2018-03-15T06:40:16.043Z,16.50
2018-03-15T06:40:47.784Z,16.50
2018-03-15T06:41:19.508Z,16.50
2018-03-15T06:41:51.248Z,16.50
2018-03-15T06:42:22.981Z,16.50
2018-03-15T06:42:54.710Z,16.50
2018-03-15T06:43:26.431Z,16.50
2018-03-15T06:43:58.225Z,16.50
2018-03-15T06:44:29.945Z,16.50
2018-03-15T06:45:01.686Z,16.50
2018-03-15T06:45:33.404Z,16.50
2018-03-15T06:46:05.907Z,16.50
2018-03-15T06:46:37.644Z,16.50
2018-03-15T06:47:09.356Z,16.50
2018-03-15T06:47:41.849Z,16.50
2018-03-15T06:48:13.584Z,16.50
2018-03-15T06:48:45.379Z,16.50
2018-03-15T06:49:17.158Z,16.50
2018-03-15T06:49:48.910Z,16.50
2018-03-15T06:50:20.641Z,16.50
2018-03-15T06:50:53.124Z,16.50